Oakes, ND

4:39 PM CDT on July 24, 2017 (GMT -0500)
Oakes

Weather History for K2D5 - November, 2012

Change the Weather History Date:

Monday, November 26, 2012

  Actual Average (KP67) Record (KP67)
Temperature  
Mean Temperature 14 °F -  
Max Temperature 26 °F 23 °F 42 °F (1997)
Min Temperature 1 °F 9 °F -11 °F (1996)
Degree Days  
Heating Degree Days 52    
Moisture  
Dew Point 7 °F    
Average Humidity 72    
Maximum Humidity 92    
Minimum Humidity 46    
Precipitation  
Precipitation 0.00 in - - ()
Sea Level Pressure  
Sea Level Pressure 30.32 in    
Wind  
Wind Speed 10 mph (WSW)    
Max Wind Speed 17 mph    
Max Gust Speed 23 mph    
Visibility 10 miles    
Events Snow    
Averages and records for this station are not official NWS values.
T = Trace of Precipitation, MM = Missing Value Source: NWS Daily Summary

Daily Weather History Graph

Daily Weather History Graph

Search for Another Location

Airport or City:

Trip Planner

Search our weather history database for the weather conditions in past years. The results will help you decide how hot, cold, wet, or windy it might be!

Date:

Astronomy

Nov. 26, 2012 Rise Set
Actual Time 7:48 AM CST 4:50 PM CST
Civil Twilight 7:15 AM CST 5:24 PM CST
Nautical Twilight 6:38 AM CST 6:01 PM CST
Astronomical Twilight 6:02 AM CST 6:37 PM CST
Moon 3:46 PM CST (11/26) 5:56 AM CST (11/26)
Length of Visible Light 10h 08m
Length of Day
9h 01m
Waxing Gibbous, 97% of the Moon is Illuminated
Nov 26
Waxing Gibbous
Nov 28
Full
Dec 6
Last Quarter
Dec 13
New
Dec 19
First Quarter

Hourly Weather History & Observations

Time (CST) Temp. Windchill Dew Point Humidity Pressure Visibility Wind Dir Wind Speed Gust Speed Precip Events Conditions
12:15 AM 14.0 °F 1.2 °F 8.6 °F 79% 30.28 in 10.0 mi NNW 10.4 mph - N/A   Overcast
12:35 AM 15.8 °F 4.2 °F 8.6 °F 73% 30.28 in 10.0 mi North 9.2 mph - N/A   Overcast
12:55 AM 15.8 °F 4.2 °F 10.4 °F 79% 30.28 in 10.0 mi North 9.2 mph - N/A   Overcast
1:15 AM 15.8 °F 6.1 °F 10.4 °F 79% 30.29 in 10.0 mi North 6.9 mph - N/A   Overcast
1:35 AM 15.8 °F 5.1 °F 10.4 °F 79% 30.29 in 10.0 mi North 8.1 mph - N/A   Overcast
1:55 AM 15.8 °F 5.1 °F 10.4 °F 79% 30.30 in 10.0 mi NNW 8.1 mph - N/A Snow Light Snow
2:15 AM 14.0 °F -1.4 °F 8.6 °F 79% 30.31 in 10.0 mi NNW 15.0 mph - N/A Snow Light Snow
2:35 AM 10.4 °F -5.4 °F 6.8 °F 85% 30.32 in 10.0 mi North 13.8 mph - N/A   Overcast
2:55 AM 10.4 °F -3.3 °F 6.8 °F 85% 30.33 in 10.0 mi NNW 10.4 mph - N/A   Mostly Cloudy
3:15 AM 8.6 °F -5.5 °F 5.0 °F 85% 30.34 in 10.0 mi NNW 10.4 mph - N/A   Partly Cloudy
3:35 AM 6.8 °F -7.8 °F 5.0 °F 92% 30.34 in 10.0 mi NNW 10.4 mph - N/A   Clear
3:55 AM 6.8 °F -7.8 °F 5.0 °F 92% 30.34 in 10.0 mi NW 10.4 mph - N/A   Clear
4:15 AM 6.8 °F -3.5 °F 3.2 °F 85% 30.35 in 10.0 mi WNW 5.8 mph - N/A   Clear
4:35 AM 5.0 °F -5.6 °F 3.2 °F 92% 30.36 in 10.0 mi NW 5.8 mph - N/A   Clear
4:55 AM 5.0 °F -5.6 °F 1.4 °F 85% 30.36 in 10.0 mi NW 5.8 mph - N/A   Clear
5:15 AM 5.0 °F -5.6 °F 1.4 °F 85% 30.37 in 10.0 mi WNW 5.8 mph - N/A   Clear
5:35 AM 5.0 °F -6.9 °F 1.4 °F 85% 30.38 in 10.0 mi WNW 6.9 mph - N/A   Clear
6:15 AM 3.2 °F -7.8 °F -0.4 °F 85% 30.39 in 10.0 mi West 5.8 mph - N/A   Clear
6:35 AM 3.2 °F -7.8 °F -0.4 °F 85% 30.39 in 10.0 mi West 5.8 mph - N/A   Clear
6:55 AM 1.4 °F -6.2 °F -0.4 °F 92% 30.39 in 10.0 mi West 3.5 mph - N/A   Clear
7:15 AM 1.4 °F - -0.4 °F 92% 30.40 in 10.0 mi Calm Calm - N/A   Clear
7:35 AM 1.4 °F -6.2 °F -0.4 °F 92% 30.41 in 10.0 mi West 3.5 mph - N/A   Clear
7:55 AM 3.2 °F -6.2 °F -0.4 °F 85% 30.41 in 10.0 mi West 4.6 mph - N/A   Clear
8:15 AM 3.2 °F -6.2 °F -0.4 °F 85% 30.42 in 10.0 mi West 4.6 mph - N/A   Clear
8:35 AM 5.0 °F -5.6 °F 1.4 °F 85% 30.42 in 10.0 mi West 5.8 mph - N/A   Clear
8:55 AM 5.0 °F -5.6 °F 1.4 °F 85% 30.43 in 10.0 mi West 5.8 mph - N/A   Unknown
9:15 AM 6.8 °F -4.8 °F 3.2 °F 85% 30.42 in 10.0 mi West 6.9 mph - N/A   Unknown
9:35 AM 8.6 °F -5.5 °F 5.0 °F 85% 30.43 in 10.0 mi West 10.4 mph - N/A   Clear
9:55 AM 10.4 °F -2.4 °F 5.0 °F 79% 30.43 in 10.0 mi West 9.2 mph - N/A   Clear
10:15 AM 10.4 °F -2.4 °F 5.0 °F 79% 30.43 in 10.0 mi WSW 9.2 mph - N/A   Clear
10:35 AM 12.2 °F -1.0 °F 5.0 °F 73% 30.42 in 10.0 mi West 10.4 mph - N/A   Clear
10:55 AM 14.0 °F 1.2 °F 5.0 °F 67% 30.41 in 10.0 mi West 10.4 mph - N/A   Unknown
11:15 AM 14.0 °F 0.5 °F 5.0 °F 67% 30.40 in 10.0 mi WSW 11.5 mph - N/A   Unknown
11:35 AM 15.8 °F 3.4 °F 5.0 °F 62% 30.39 in 10.0 mi SW 10.4 mph - N/A   Unknown
11:55 AM 17.6 °F 5.7 °F 5.0 °F 58% 30.39 in 10.0 mi WSW 10.4 mph - N/A   Unknown
12:15 PM 17.6 °F 5.0 °F 5.0 °F 58% 30.38 in 10.0 mi WSW 11.5 mph - N/A   Clear
12:35 PM 19.4 °F 7.2 °F 5.0 °F 54% 30.37 in 10.0 mi WSW 11.5 mph - N/A   Clear
12:55 PM 21.2 °F 9.5 °F 6.8 °F 54% 30.37 in 10.0 mi SW 11.5 mph - N/A   Clear
1:15 PM 21.2 °F 7.8 °F 6.8 °F 54% 30.35 in 10.0 mi SSW 15.0 mph - N/A   Clear
1:35 PM 23.0 °F 10.6 °F 6.8 °F 50% 30.35 in 10.0 mi SW 13.8 mph - N/A   Clear
1:55 PM 23.0 °F 11.1 °F 6.8 °F 50% 30.34 in 10.0 mi SW 12.7 mph 19.6 mph N/A   Clear
2:15 PM 24.8 °F 12.4 °F 6.8 °F 46% 30.33 in 10.0 mi SW 15.0 mph - N/A   Unknown
2:35 PM 24.8 °F 11.5 °F 6.8 °F 46% 30.32 in 10.0 mi SSW 17.3 mph 21.9 mph N/A   Unknown
2:55 PM 24.8 °F 11.5 °F 6.8 °F 46% 30.31 in 10.0 mi SW 17.3 mph 23.0 mph N/A   Unknown
3:15 PM 24.8 °F 11.9 °F 8.6 °F 50% 30.30 in 10.0 mi SW 16.1 mph - N/A   Unknown
3:35 PM 26.6 °F 14.3 °F 8.6 °F 47% 30.31 in 10.0 mi SW 16.1 mph - N/A   Unknown
3:55 PM 24.8 °F 13.4 °F 8.6 °F 50% 30.31 in 10.0 mi SW 12.7 mph 19.6 mph N/A   Unknown
4:15 PM 24.8 °F 11.9 °F 8.6 °F 50% 30.30 in 10.0 mi SW 16.1 mph 21.9 mph N/A   Clear
4:35 PM 24.8 °F 12.9 °F 8.6 °F 50% 30.29 in 10.0 mi SW 13.8 mph - N/A   Clear
4:55 PM 23.0 °F 10.1 °F 8.6 °F 54% 30.28 in 10.0 mi SSW 15.0 mph 19.6 mph N/A   Partly Cloudy
5:15 PM 23.0 °F 10.1 °F 8.6 °F 54% 30.28 in 10.0 mi SSW 15.0 mph 20.7 mph N/A   Partly Cloudy
5:35 PM 21.2 °F 8.3 °F 10.4 °F 63% 30.27 in 10.0 mi SSW 13.8 mph - N/A   Unknown
5:55 PM 21.2 °F 8.3 °F 8.6 °F 58% 30.27 in 10.0 mi SSW 13.8 mph - N/A   Unknown
6:15 PM 19.4 °F 7.9 °F 8.6 °F 63% 30.27 in 10.0 mi SSW 10.4 mph - N/A   Unknown
6:35 PM 19.4 °F 6.6 °F 10.4 °F 68% 30.26 in 10.0 mi SSW 12.7 mph - N/A   Unknown
6:55 PM 19.4 °F 6.6 °F 10.4 °F 68% 30.26 in 10.0 mi South 12.7 mph - N/A   Clear
7:15 PM 19.4 °F 6.0 °F 8.6 °F 63% 30.25 in 10.0 mi South 13.8 mph - N/A   Clear
7:35 PM 17.6 °F 4.3 °F 8.6 °F 68% 30.24 in 10.0 mi South 12.7 mph - N/A   Clear
7:55 PM 17.6 °F 3.7 °F 10.4 °F 73% 30.23 in 10.0 mi South 13.8 mph - N/A   Clear
8:15 PM 17.6 °F 3.2 °F 8.6 °F 68% 30.23 in 10.0 mi South 15.0 mph - N/A   Unknown
8:35 PM 17.6 °F 3.2 °F 8.6 °F 68% 30.23 in 10.0 mi South 15.0 mph - N/A   Unknown
8:55 PM 17.6 °F 3.2 °F 10.4 °F 73% 30.23 in 10.0 mi South 15.0 mph - N/A   Unknown
9:15 PM 17.6 °F 3.2 °F 10.4 °F 73% 30.22 in 10.0 mi South 15.0 mph - N/A   Clear
9:35 PM 17.6 °F 3.2 °F 10.4 °F 73% 30.22 in 10.0 mi South 15.0 mph - N/A   Clear
9:55 PM 17.6 °F 3.2 °F 10.4 °F 73% 30.22 in 10.0 mi South 15.0 mph - N/A   Clear
10:15 PM 17.6 °F 2.7 °F 10.4 °F 73% 30.22 in 10.0 mi South 16.1 mph - N/A   Unknown
10:35 PM 17.6 °F 3.2 °F 10.4 °F 73% 30.21 in 10.0 mi SSW 15.0 mph - N/A   Unknown
10:55 PM 15.8 °F 1.4 °F 10.4 °F 79% 30.21 in 10.0 mi South 13.8 mph - N/A   Unknown
11:15 PM 15.8 °F 1.4 °F 10.4 °F 79% 30.21 in 10.0 mi SSW 13.8 mph - N/A   Unknown
11:35 PM 17.6 °F 3.7 °F 12.2 °F 79% 30.20 in 10.0 mi SSW 13.8 mph - N/A   Clear
11:55 PM 17.6 °F 3.2 °F 14.0 °F 86% 30.20 in 10.0 mi South 15.0 mph - N/A   Clear